Historyczne dane pomiarowe

Dodano dane terminowe – wersja testowa.

Dane z okresu 1951-2019

Wersja bazy: 1.34 [2019-03-16, lista zmian], aktualizacja planowana na 2019-04-15

Dane meteo z obszaru Polski uzyskane na podstawie danych udostępnionych przez Instytut Meteorologii i Gospodarki Wodnej – Państwowy Instytut Badawczy.

 

Wybierz Datę:    

       

TemperaturaWilgotnośćWiatrCiśnienieOpadyŚniegCzas trwania zjawisk
 Stacja t tx tn tng RH VA  wxwx mslp ppp RRR   cm mm wxwxwxwxwxwxwx
1961-01-17 -4.7 -0.2 -7.4 -7.0 82.0 3.9- 3.4--1021.5- 0.0--x- 8.0-------
1961-01-18 -9.8 -5.5-12.0-13.6 71.0 2.0- 4.6--1026.4- 0.0--x- 7.3-------
1961-01-19 -8.2 -2.9-13.6-14.4 68.0 2.1- 5.4--1019.0- 0.0--x- 7.9-------
1961-01-20 -5.2 0.3-10.3-11.9 68.0 2.8- 5.0--1012.2- 0.0--x- 7.9-------
1961-01-21 -4.4 -2.1 -8.8-10.5 77.0 3.2- 4.2--1007.0- 0.0--x- 0.0-------
1961-01-22 -1.6 0.5 -6.7 -7.7 95.0 5.1- 3.4--1000.6- 6.1--x- 0.0-------
1961-01-23 -5.4 0.0 -8.2 -1.5 88.0 4.0- 3.9-- 999.9- 0.0--x- 0.0-------
1961-01-24 -9.0 -3.8-13.5-13.5 79.0 2.5- 3.6--1001.9- 0.0--x- 7.6-------
1961-01-25 -9.3 -5.4-11.7-14.4 76.0 2.4- 4.5--1001.1- 0.0--x- 7.6-------
1961-01-26-12.8 -7.1-16.3-18.7 71.0 1.6- 3.7--1012.7- 0.0--x- 8.0-------
1961-01-27 -9.5 -2.9-17.6-18.6 66.0 2.0- 5.0--1015.9- 0.0--x- 8.0-------
1961-01-28 -4.8 -1.9-10.8-15.6 69.0 2.9- 5.7--1005.6- 0.0--x- 2.5-------
1961-01-29 4.6 6.5 -4.2 -7.0 77.0 6.5- 7.7--1001.0- 1.9--x- 5.5-------
1961-01-30 5.6 7.7 3.9 2.9 85.0 7.7- 7.9-- 990.2- 4.7--x- 0.0-------
1961-01-31 4.6 5.6 4.0 3.2 93.0 7.9- 4.5-- 989.0- 6.9--x- 0.0-------
1961-02-01 3.4 4.7 0.6 -1.8 83.0 6.4- 5.2-- 983.9- 0.3--x- 0.0-------
1961-02-02 2.7 5.3 1.8 1.3 78.0 5.9- 4.9-- 980.2- 1.0--x- 5.1-------
1961-02-03 0.4 1.8 0.1 -0.2 96.0 6.1- 3.8-- 986.6- 0.3--x- 0.2-------
1961-02-04 0.3 2.4 -0.8 -1.4 90.0 5.7- 3.5-- 990.4- 0.0--x- 0.7-------
1961-02-05 -3.0 0.1 -3.6 -5.0 93.0 4.5- 3.9--1004.2- 0.0--x- 3.9-------
1961-02-06 1.8 3.0 -3.4 -4.4 88.0 6.0- 6.1-- 997.4- 0.2--x- 0.0-------
1961-02-07 4.9 7.6 2.5 1.9 77.0 6.7- 6.9-- 992.4- 2.0--x- 4.7-------
1961-02-08 2.1 5.3 0.4 2.2 93.0 6.8- 4.8--1003.5- 7.4--x- 2.6-------
1961-02-09 6.4 8.7 0.3 -1.6 96.0 9.2- 6.3-- 997.0- 9.1--x- 0.0-------
1961-02-10 3.3 6.4 2.8 2.6 88.0 6.8- 5.9--1012.6- 0.2--x- 0.0-------
1961-02-11 5.6 6.4 3.5 2.9 87.0 7.9- 5.3--1000.4- 3.4--x- 0.0-------
1961-02-12 3.9 5.8 3.1 3.6 96.0 7.9- 4.4--1000.2- 3.0--x- 0.0-------
1961-02-13 5.1 7.4 1.5 -1.3 92.0 8.0- 1.9--1010.4- 0.2--x- 0.0-------
1961-02-14 5.5 8.6 4.5 4.2 92.0 8.4- 2.4--1013.8- 0.1--x- 0.0-------
1961-02-15 8.0 14.9 0.8 -1.4 81.0 8.5- 3.1--1015.4- 0.1--x- 7.1-------
141.1 ms

 

Źródłem pochodzenia danych jest Instytut Meteorologii i Gospodarki Wodnej – Państwowy Instytut Badawczy. Dane Instytutu Meteorologii i Gospodarki Wodnej – Państwowego Instytutu Badawczego zostały przetworzone.

Dane źródłowe można odnaleźć na stronie https://dane.imgw.pl